VOCLVOCI

Guest
Details From VOCL - CALICUT
To VOCI - COCHIN INTL
Flight Number -
Tags generated
Created
Modified
Stats Distance 65 nm / 120 km
Max Altitude 0 ft / 0 m
Waypoints 3
Social Downloads 1
Likes 0
Share VATSIM

Download

Looking for another format? Having issues loading an existing format? Contact us
Advertisement - Login to hide

Notes

Basic altitude profile: - Ascent Rate: 2500ft/min - Ascent Speed: 250kts - Cruise Altitude: 35000ft - Cruise Speed: 420kts - Descent Rate: 1500ft/min - Descent Speed: 250kts Options: - Use NATs: yes - Use PACOTS: yes - Use low airways: yes - Use high airways: yes

Route

VOCL CLC VOCI

ID Type Via Altitude Latitude Longitude Leg Dist Tot Dist Heading (true) Name
O VOCL APT - 0 ft / 0 m 11.13684˚ 75.95530˚ - 0 nm - CALICUT
CLC VOR - 0 ft / 0 m 11.13515˚ 75.95485˚ 0 nm 0 nm 195° / 195° CALICUT VOR-DME
O VOCI APT - 0 ft / 0 m 10.15200˚ 76.40191˚ 64 nm 64 nm 156° / 156° COCHIN INTL

Altitude Profile

Advertisement - Login to hide

VOCL

Details ICAO VOCL (CCJ)
Name CALICUT
Region India
Timezone Asia/Kolkata (UTC+5.5)
Stats Elevation 342 ft / 104 m (AMSL)
Location 11.136840° 75.955300°
Runways 1
Magnetic Variation 1.460° W

METAR

Not found

TAF

TAF VOCL 272300Z 2800/2906 VRB03KT 4000 -RA BR FEW008 SCT015 FEW025CB BECMG 2803/2804 24010KT 6000 SCT012 BKN080 BECMG 2806/2807 SCT012 FEW025CB OVC080 TEMPO 2810/2815 2000 TSRA RA BECMG 2815/2816 VRB03KT 5000 -RA HZ TEMPO 2822/2903 3000 RA BR FEW008 SCT012 FEW025CB BKN080 BECMG 2903/2904 25010KT 6000 SCT012 BKN080

Decode

Departure Runways

ID Width Length Bearing (true) Bearing (mag) Surface Threshold Offset Overrun Length
10 150 ft / 46 m 9,384 ft / 2,860 m 101.05° 102.51° Asphalt 0 ft / 0 m 190 ft / 58 m
28 150 ft / 46 m 9,384 ft / 2,860 m 281.06° 282.52° Asphalt 0 ft / 0 m 190 ft / 58 m

VOCI

Details ICAO VOCI (COK)
Name COCHIN INTL
Region India
Timezone Asia/Kolkata (UTC+5.5)
Stats Elevation 30 ft / 9 m (AMSL)
Location 10.151996° 76.401905°
Runways 1
Magnetic Variation 1.622° W

METAR

Not found

TAF

TAF TAF VOCI 272300Z 2800/2906 10005KT 2000 RA BR SCT012 BKN080 BECMG 2803/2804 4000 HZ BECMG 2806/2807 18010KT 6000 SCT012 FEW025CB BKN090 TEMPO 2810/2815 09010KT 2000 TSRA RA BECMG 2815/2816 VRB05KT 3000 RA HZ SCT010 BKN080 TEMPO 2822/2903 2000 RA BR BECMG 2903/2904 09005KT 4000 HZ

Decode

Destination Runways

ID Width Length Bearing (true) Bearing (mag) Surface Threshold Offset Overrun Length
09 148 ft / 45 m 11,139 ft / 3,395 m 87.86° 89.48° Asphalt 0 ft / 0 m 195 ft / 59 m
27 148 ft / 45 m 11,139 ft / 3,395 m 267.87° 269.49° Asphalt 0 ft / 0 m 195 ft / 59 m

Approach Navaids

Runway Type Ident Frequency Range Bearing (true) Bearing (mag) Slope Elevation
27 Localiser ICIL 110.30 MHz 18 nm / 33 km 266.21° 267.83° - 30 ft / 9 m (AMSL)
27 Glidescope ICIL 110.30 MHz 10 nm / 19 km 267.87° 269.49° 3.00° 28 ft / 9 m (AMSL)
27 DME ICIL 110.30 MHz 18 nm / 33 km - - - 40 ft / 12 m (AMSL)